Time;durP1;ratioP1;P1;durP2;ratioP2;P2;SDS_P1;SDS_P2;PMS_P1;PMS_P2;Temp;Humidity;BMP_temperature;BMP_pressure;BME280_temperature;BME280_humidity;BME280_pressure;Samples;Min_cycle;Max_cycle;Signal;HPM_P1;HPM_P2
2022/08/14 00:01:42;;;;;;;8.48;6.10;;;;;;;;;;5051603;28;20397;-76
2022/08/14 00:04:09;;;;;;;10.10;6.25;;;;;;;;;;5050639;28;20049;-75
2022/08/14 00:06:35;;;;;;;7.15;6.18;;;;;;;;;;5051418;28;20055;-75
2022/08/14 00:09:01;;;;;;;7.57;6.53;;;;;;;;;;5050626;28;20083;-76
2022/08/14 00:11:28;;;;;;;7.13;6.13;;;;;;;;;;5034360;28;20048;-75
2022/08/14 00:13:54;;;;;;;8.25;6.13;;;;;;;;;;5050833;28;20485;-75
2022/08/14 00:16:20;;;;;;;7.50;6.70;;;;;;;;;;5043805;28;20045;-76
2022/08/14 00:18:46;;;;;;;8.05;7.25;;;;;;;;;;5034032;28;20052;-75
2022/08/14 00:21:12;;;;;;;9.70;7.13;;;;;;;;;;5034619;28;20048;-76
2022/08/14 00:23:38;;;;;;;11.50;7.30;;;;;;;;;;5051094;28;20123;-76
2022/08/14 00:26:04;;;;;;;10.23;7.30;;;;;;;;;;5017861;28;20040;-75
2022/08/14 00:28:31;;;;;;;10.70;7.47;;;;;;;;;;5050455;28;20037;-76
2022/08/14 00:30:58;;;;;;;9.65;6.72;;;;;;;;;;5050555;28;20041;-75
2022/08/14 00:33:25;;;;;;;11.35;7.43;;;;;;;;;;5050986;28;20055;-75
2022/08/14 00:35:52;;;;;;;11.35;7.35;;;;;;;;;;5050542;28;20075;-75
2022/08/14 00:38:19;;;;;;;9.52;7.28;;;;;;;;;;5050735;28;20041;-75
2022/08/14 00:40:45;;;;;;;9.68;7.45;;;;;;;;;;5050855;28;20044;-75
2022/08/14 00:43:11;;;;;;;11.23;7.25;;;;;;;;;;5051814;28;20500;-76
2022/08/14 00:45:37;;;;;;;9.30;7.20;;;;;;;;;;5054557;28;20064;-75
2022/08/14 00:48:03;;;;;;;10.20;7.65;;;;;;;;;;5037731;28;20052;-76
2022/08/14 00:50:29;;;;;;;12.07;7.90;;;;;;;;;;5038150;28;20059;-75
2022/08/14 00:52:58;;;;;;;9.13;7.97;;;;;;;;;;5054346;28;20072;-76
2022/08/14 00:55:26;;;;;;;11.48;8.30;;;;;;;;;;5054866;28;20052;-76
2022/08/14 01:00:38;;;;;;;13.50;8.50;;;;;;;;;;5054448;28;20107;-75
2022/08/14 01:03:05;;;;;;;10.50;7.75;;;;;;;;;;5037545;28;20102;-76
2022/08/14 01:05:33;;;;;;;15.98;8.27;;;;;;;;;;5054408;28;20048;-76
2022/08/14 01:07:59;;;;;;;11.05;7.55;;;;;;;;;;5054183;28;20056;-76
2022/08/14 01:10:49;;;;;;;8.60;7.60;;;;;;;;;;5055689;28;20036;-75
2022/08/14 01:13:15;;;;;;;8.88;7.88;;;;;;;;;;5058861;28;20099;-75
2022/08/14 01:15:43;;;;;;;9.88;7.68;;;;;;;;;;5054451;28;20052;-76
2022/08/14 01:21:05;;;;;;;11.98;7.50;;;;;;;;;;5039712;28;20132;-76
2022/08/14 01:23:31;;;;;;;10.07;8.25;;;;;;;;;;5054381;28;20512;-76
2022/08/14 01:25:58;;;;;;;9.88;7.28;;;;;;;;;;5053489;28;20075;-75
2022/08/14 01:28:30;;;;;;;9.80;7.50;;;;;;;;;;5037488;28;20041;-76
2022/08/14 01:30:56;;;;;;;8.88;7.30;;;;;;;;;;5037316;28;20049;-75
2022/08/14 01:33:30;;;;;;;9.23;8.10;;;;;;;;;;5053983;28;20041;-75
2022/08/14 01:35:57;;;;;;;10.40;7.43;;;;;;;;;;5053878;28;20052;-76
2022/08/14 01:38:33;;;;;;;9.45;8.02;;;;;;;;;;5037259;28;20033;-76
2022/08/14 01:41:05;;;;;;;8.75;7.85;;;;;;;;;;5053428;28;20044;-76
2022/08/14 01:43:38;;;;;;;10.70;8.27;;;;;;;;;;5053485;28;20130;-76
2022/08/14 01:46:10;;;;;;;9.68;7.57;;;;;;;;;;5037827;28;20133;-76
2022/08/14 01:48:36;;;;;;;11.77;7.80;;;;;;;;;;5037112;28;20119;-76
2022/08/14 01:51:02;;;;;;;12.00;7.95;;;;;;;;;;5053365;28;20063;-76
2022/08/14 01:53:30;;;;;;;9.00;7.50;;;;;;;;;;5036804;28;20041;-76
2022/08/14 01:56:02;;;;;;;9.45;7.75;;;;;;;;;;5053571;28;20045;-76
2022/08/14 01:58:28;;;;;;;10.63;7.95;;;;;;;;;;5037287;28;20081;-76
2022/08/14 02:00:55;;;;;;;10.20;8.05;;;;;;;;;;5052650;28;20048;-75
2022/08/14 02:03:22;;;;;;;9.18;8.27;;;;;;;;;;5069452;28;20051;-75
2022/08/14 02:05:48;;;;;;;10.65;8.20;;;;;;;;;;5047612;28;20045;-76
2022/08/14 02:08:15;;;;;;;10.05;8.25;;;;;;;;;;5052909;28;20068;-76
2022/08/14 02:10:42;;;;;;;12.80;7.93;;;;;;;;;;5043778;28;20034;-76
2022/08/14 02:13:09;;;;;;;9.45;8.45;;;;;;;;;;5046905;28;20045;-76
2022/08/14 02:15:39;;;;;;;10.13;8.27;;;;;;;;;;5045080;28;20057;-76
2022/08/14 02:18:06;;;;;;;11.38;8.45;;;;;;;;;;5045874;28;20029;-76
2022/08/14 02:20:32;;;;;;;8.52;7.70;;;;;;;;;;5046507;28;20041;-76
2022/08/14 02:23:02;;;;;;;10.55;8.18;;;;;;;;;;5044025;28;20133;-75
2022/08/14 02:25:30;;;;;;;12.55;7.90;;;;;;;;;;5049357;28;20513;-76
2022/08/14 02:27:56;;;;;;;11.70;8.35;;;;;;;;;;5052932;28;20048;-75
2022/08/14 02:30:25;;;;;;;9.52;8.52;;;;;;;;;;5036224;28;20070;-76
2022/08/14 02:32:51;;;;;;;11.57;8.40;;;;;;;;;;5052720;28;20044;-76
2022/08/14 02:35:18;;;;;;;8.75;7.82;;;;;;;;;;5035958;28;20037;-76
2022/08/14 02:37:45;;;;;;;9.35;8.35;;;;;;;;;;5053004;28;20497;-75
2022/08/14 02:40:11;;;;;;;9.35;8.38;;;;;;;;;;5052443;28;20040;-75
2022/08/14 02:42:38;;;;;;;9.27;8.05;;;;;;;;;;5052866;28;20511;-75
2022/08/14 02:45:06;;;;;;;10.32;8.27;;;;;;;;;;5035524;28;20057;-75
2022/08/14 02:47:33;;;;;;;9.40;8.07;;;;;;;;;;5052857;28;20107;-76
2022/08/14 02:49:59;;;;;;;8.93;8.02;;;;;;;;;;5052588;28;20047;-75
2022/08/14 02:52:26;;;;;;;10.10;8.45;;;;;;;;;;5052076;28;20059;-75
2022/08/14 02:54:52;;;;;;;10.45;8.65;;;;;;;;;;5035719;28;20095;-75
2022/08/14 02:57:18;;;;;;;10.85;8.32;;;;;;;;;;5035868;28;20517;-75
2022/08/14 02:59:45;;;;;;;10.38;8.70;;;;;;;;;;5052584;28;20374;-75
2022/08/14 03:02:11;;;;;;;10.95;8.48;;;;;;;;;;5035530;28;20425;-75
2022/08/14 03:04:38;;;;;;;10.20;8.75;;;;;;;;;;5052182;28;20045;-75
2022/08/14 03:07:04;;;;;;;10.80;8.70;;;;;;;;;;5051309;28;20049;-75
2022/08/14 03:09:30;;;;;;;11.45;8.52;;;;;;;;;;5051830;28;20037;-76
2022/08/14 03:11:56;;;;;;;10.30;8.73;;;;;;;;;;5051880;28;20041;-75
2022/08/14 03:14:24;;;;;;;10.95;8.82;;;;;;;;;;5051893;28;20060;-76
2022/08/14 03:16:51;;;;;;;10.40;8.20;;;;;;;;;;5035787;28;20049;-75
2022/08/14 03:19:17;;;;;;;10.93;8.85;;;;;;;;;;5051487;28;20072;-75
2022/08/14 03:21:44;;;;;;;10.48;8.90;;;;;;;;;;5035514;28;20045;-76
2022/08/14 03:24:13;;;;;;;11.55;7.70;;;;;;;;;;5051671;28;20053;-75
2022/08/14 03:26:41;;;;;;;10.57;8.43;;;;;;;;;;5052069;28;20535;-75
2022/08/14 03:29:07;;;;;;;11.80;8.63;;;;;;;;;;5051787;28;20049;-75
2022/08/14 03:31:35;;;;;;;12.00;8.98;;;;;;;;;;5034606;28;20037;-75
2022/08/14 03:34:03;;;;;;;10.43;8.60;;;;;;;;;;5051721;28;20037;-75
2022/08/14 03:36:31;;;;;;;10.55;8.90;;;;;;;;;;5051301;28;20444;-76
2022/08/14 03:38:58;;;;;;;11.73;9.05;;;;;;;;;;5035244;28;20576;-76
2022/08/14 03:41:26;;;;;;;12.05;9.35;;;;;;;;;;5051402;28;20048;-76
2022/08/14 03:43:56;;;;;;;10.55;9.32;;;;;;;;;;5051474;28;20394;-75
2022/08/14 03:46:24;;;;;;;11.98;9.02;;;;;;;;;;5051112;28;20152;-76
2022/08/14 03:48:53;;;;;;;12.40;9.10;;;;;;;;;;5051273;28;20049;-76
2022/08/14 03:51:20;;;;;;;13.80;9.65;;;;;;;;;;5051149;28;20049;-76
2022/08/14 03:53:46;;;;;;;11.13;9.38;;;;;;;;;;5051456;28;20041;-76
2022/08/14 03:56:13;;;;;;;10.65;8.95;;;;;;;;;;5051200;28;20051;-76
2022/08/14 03:58:44;;;;;;;11.25;9.20;;;;;;;;;;5034931;28;20404;-75
2022/08/14 04:01:11;;;;;;;11.70;9.63;;;;;;;;;;5033234;28;20045;-76
2022/08/14 04:03:37;;;;;;;11.50;9.32;;;;;;;;;;5048475;28;20124;-75
2022/08/14 04:06:03;;;;;;;10.75;9.30;;;;;;;;;;5042297;28;20033;-76
2022/08/14 04:08:29;;;;;;;11.23;9.35;;;;;;;;;;5036385;28;20081;-75
2022/08/14 04:10:58;;;;;;;11.95;9.38;;;;;;;;;;5040839;28;20036;-76
2022/08/14 04:13:24;;;;;;;11.45;10.13;;;;;;;;;;5045385;28;20036;-76
2022/08/14 04:15:50;;;;;;;12.52;9.80;;;;;;;;;;5040986;28;20553;-75
2022/08/14 04:18:16;;;;;;;12.55;9.82;;;;;;;;;;5049397;28;20533;-75
2022/08/14 04:20:43;;;;;;;12.18;9.80;;;;;;;;;;5048455;28;20037;-75
2022/08/14 04:23:09;;;;;;;12.63;9.50;;;;;;;;;;5043231;28;20051;-75
2022/08/14 04:25:36;;;;;;;11.27;9.77;;;;;;;;;;5046405;28;20111;-74
2022/08/14 04:28:06;;;;;;;12.95;10.48;;;;;;;;;;5050771;28;20497;-75
2022/08/14 04:30:37;;;;;;;11.50;9.80;;;;;;;;;;5050544;28;20075;-75
2022/08/14 04:33:04;;;;;;;11.68;9.43;;;;;;;;;;5050785;28;20041;-75
2022/08/14 04:35:30;;;;;;;10.70;9.52;;;;;;;;;;5033979;28;20033;-75
2022/08/14 04:43:35;;;;;;;13.65;10.20;;;;;;;;;;5050093;28;20040;-76
2022/08/14 04:46:04;;;;;;;11.90;9.98;;;;;;;;;;5050750;28;20049;-75
2022/08/14 04:48:31;;;;;;;12.52;8.80;;;;;;;;;;5033650;28;20041;-75
2022/08/14 04:50:57;;;;;;;13.48;9.75;;;;;;;;;;5050855;28;20413;-75
2022/08/14 04:53:25;;;;;;;14.10;9.77;;;;;;;;;;5050281;28;20072;-76
2022/08/14 04:55:51;;;;;;;11.18;9.40;;;;;;;;;;5050890;28;20037;-76
2022/08/14 04:58:18;;;;;;;12.23;9.82;;;;;;;;;;5050606;28;20053;-75
2022/08/14 05:00:45;;;;;;;9.95;8.95;;;;;;;;;;5050185;28;20044;-75
2022/08/14 05:03:11;;;;;;;10.88;8.73;;;;;;;;;;5050607;28;20048;-75
2022/08/14 05:05:38;;;;;;;12.32;8.90;;;;;;;;;;5050002;28;20059;-75
2022/08/14 05:08:07;;;;;;;12.52;9.77;;;;;;;;;;5033758;28;20041;-75
2022/08/14 05:10:34;;;;;;;11.10;9.35;;;;;;;;;;5050064;28;20044;-75
2022/08/14 05:13:00;;;;;;;11.55;8.80;;;;;;;;;;5050665;28;20497;-75
2022/08/14 05:15:29;;;;;;;10.65;8.80;;;;;;;;;;5051314;28;20167;-75
2022/08/14 05:17:55;;;;;;;10.55;9.45;;;;;;;;;;5034039;28;20116;-76
2022/08/14 05:20:23;;;;;;;10.68;8.90;;;;;;;;;;5050171;28;20060;-75
2022/08/14 05:22:49;;;;;;;11.60;8.93;;;;;;;;;;5049485;28;20055;-75
2022/08/14 05:25:15;;;;;;;13.13;8.70;;;;;;;;;;5033084;28;20176;-76
2022/08/14 05:27:41;;;;;;;12.13;8.90;;;;;;;;;;5033400;28;20041;-75
2022/08/14 05:30:07;;;;;;;10.65;8.93;;;;;;;;;;5053203;28;20047;-75
2022/08/14 05:32:33;;;;;;;10.02;8.30;;;;;;;;;;5053854;28;20033;-75
2022/08/14 05:34:59;;;;;;;11.13;8.38;;;;;;;;;;5037404;28;20484;-75
2022/08/14 05:37:27;;;;;;;11.70;8.48;;;;;;;;;;5053669;28;20051;-75
2022/08/14 05:39:53;;;;;;;12.55;8.73;;;;;;;;;;5053848;28;20052;-75
2022/08/14 05:42:20;;;;;;;9.77;8.60;;;;;;;;;;5037388;28;20044;-75
2022/08/14 05:44:46;;;;;;;9.55;8.55;;;;;;;;;;5053253;28;20533;-75
2022/08/14 05:47:13;;;;;;;10.32;8.85;;;;;;;;;;5037109;28;20077;-75
2022/08/14 05:49:39;;;;;;;9.40;8.35;;;;;;;;;;5036699;28;20048;-75
2022/08/14 05:52:05;;;;;;;11.05;8.50;;;;;;;;;;5053634;28;20124;-76
2022/08/14 05:54:31;;;;;;;8.98;7.82;;;;;;;;;;5053313;28;20113;-75
2022/08/14 05:56:57;;;;;;;9.77;7.90;;;;;;;;;;5037056;28;20036;-76
2022/08/14 05:59:23;;;;;;;10.43;7.70;;;;;;;;;;5053499;28;20037;-76
2022/08/14 06:01:49;;;;;;;8.73;7.55;;;;;;;;;;5053090;28;20090;-76
2022/08/14 06:04:15;;;;;;;9.85;8.25;;;;;;;;;;5053423;28;20048;-76
2022/08/14 06:06:41;;;;;;;9.55;7.47;;;;;;;;;;5053305;28;20090;-76
2022/08/14 06:09:07;;;;;;;12.32;7.68;;;;;;;;;;5036516;28;20041;-76
2022/08/14 06:11:34;;;;;;;12.57;8.48;;;;;;;;;;5053151;28;20052;-76
2022/08/14 06:14:00;;;;;;;8.50;7.60;;;;;;;;;;5036520;28;20037;-76
2022/08/14 06:16:26;;;;;;;11.35;8.00;;;;;;;;;;5037029;28;20452;-75
2022/08/14 06:18:52;;;;;;;10.88;7.45;;;;;;;;;;5036249;28;20063;-76
2022/08/14 06:21:18;;;;;;;8.18;7.38;;;;;;;;;;5036472;28;20037;-76
2022/08/14 06:23:44;;;;;;;10.00;7.10;;;;;;;;;;5052876;28;20045;-76
2022/08/14 06:26:10;;;;;;;9.20;7.22;;;;;;;;;;5036287;28;20127;-76
2022/08/14 06:28:36;;;;;;;8.68;7.05;;;;;;;;;;5052441;28;20041;-76
2022/08/14 06:31:03;;;;;;;9.18;6.82;;;;;;;;;;5053064;28;20047;-75
2022/08/14 06:33:29;;;;;;;9.00;6.90;;;;;;;;;;5039331;28;20040;-75
2022/08/14 06:35:55;;;;;;;8.73;7.10;;;;;;;;;;5035837;28;20041;-75
2022/08/14 06:38:22;;;;;;;7.38;6.65;;;;;;;;;;5053213;28;20059;-76
2022/08/14 06:40:50;;;;;;;7.72;6.30;;;;;;;;;;5051446;28;20060;-76
2022/08/14 06:43:17;;;;;;;8.27;6.80;;;;;;;;;;5052610;28;20067;-76
2022/08/14 06:45:43;;;;;;;7.88;6.60;;;;;;;;;;5035663;28;20044;-77
2022/08/14 06:48:13;;;;;;;7.78;6.20;;;;;;;;;;5052424;28;20053;-76
2022/08/14 06:50:39;;;;;;;7.53;6.30;;;;;;;;;;5035649;28;20421;-77
2022/08/14 06:53:06;;;;;;;7.30;6.28;;;;;;;;;;5052830;28;20045;-76
2022/08/14 06:55:32;;;;;;;6.82;6.05;;;;;;;;;;5052805;28;20389;-76
2022/08/14 06:57:58;;;;;;;7.10;6.40;;;;;;;;;;5035763;28;20073;-76
2022/08/14 07:00:25;;;;;;;8.32;5.75;;;;;;;;;;5052439;28;20079;-77
2022/08/14 07:08:17;;;;;;;6.82;6.07;;;;;;;;;;5052084;28;20045;-76
2022/08/14 07:10:44;;;;;;;7.43;6.15;;;;;;;;;;5051796;28;20112;-76
2022/08/14 07:13:11;;;;;;;6.70;6.00;;;;;;;;;;5035740;28;20075;-77
2022/08/14 07:15:37;;;;;;;8.85;5.57;;;;;;;;;;5051651;28;20044;-76
2022/08/14 07:18:04;;;;;;;6.57;5.78;;;;;;;;;;5052266;28;20094;-77
2022/08/14 07:20:31;;;;;;;6.35;5.65;;;;;;;;;;5035520;28;20041;-76
2022/08/14 07:22:59;;;;;;;8.88;5.72;;;;;;;;;;5051536;28;20059;-75
2022/08/14 07:25:25;;;;;;;7.07;5.40;;;;;;;;;;5051769;28;20049;-77
2022/08/14 07:27:51;;;;;;;7.10;5.72;;;;;;;;;;5034944;28;20051;-76
2022/08/14 07:30:18;;;;;;;7.20;5.40;;;;;;;;;;5052202;28;20037;-76
2022/08/14 07:32:44;;;;;;;6.75;5.60;;;;;;;;;;5051692;28;20041;-76
2022/08/14 07:35:10;;;;;;;6.07;5.47;;;;;;;;;;5051772;28;20090;-77
2022/08/14 07:37:36;;;;;;;6.90;5.72;;;;;;;;;;5051876;28;20493;-77
2022/08/14 07:40:03;;;;;;;7.35;5.50;;;;;;;;;;5051365;28;20507;-77
2022/08/14 07:42:29;;;;;;;7.05;5.28;;;;;;;;;;5051888;28;20492;-76
2022/08/14 07:44:56;;;;;;;5.97;5.38;;;;;;;;;;5050960;28;20140;-76
2022/08/14 07:47:22;;;;;;;7.40;5.50;;;;;;;;;;5051358;28;20124;-77
2022/08/14 07:50:00;;;;;;;7.70;5.15;;;;;;;;;;5034407;28;20049;-77
2022/08/14 07:52:26;;;;;;;5.70;5.20;;;;;;;;;;5034824;28;20504;-76
2022/08/14 07:54:53;;;;;;;9.43;5.45;;;;;;;;;;5051068;28;20072;-76
2022/08/14 07:57:19;;;;;;;7.72;5.88;;;;;;;;;;5035074;28;20119;-76
2022/08/14 07:59:46;;;;;;;6.70;5.32;;;;;;;;;;5050907;28;20047;-76
2022/08/14 08:02:14;;;;;;;7.10;5.15;;;;;;;;;;5035335;28;20124;-76
2022/08/14 08:04:43;;;;;;;5.80;5.20;;;;;;;;;;5051192;28;20052;-75
2022/08/14 08:07:09;;;;;;;6.97;5.45;;;;;;;;;;5034583;28;20477;-76
2022/08/14 08:09:36;;;;;;;6.82;5.80;;;;;;;;;;5051231;28;20405;-76
2022/08/14 08:12:03;;;;;;;7.88;5.30;;;;;;;;;;5050982;28;20507;-76
2022/08/14 08:14:31;;;;;;;6.95;5.05;;;;;;;;;;5051418;28;20451;-76
2022/08/14 08:16:59;;;;;;;10.63;5.40;;;;;;;;;;5050712;28;20094;-76
2022/08/14 08:19:25;;;;;;;7.43;5.10;;;;;;;;;;5034499;28;20093;-77
2022/08/14 08:21:53;;;;;;;5.63;4.78;;;;;;;;;;5051195;28;20052;-76
2022/08/14 08:24:19;;;;;;;5.82;5.22;;;;;;;;;;5051147;28;20102;-76
2022/08/14 08:26:45;;;;;;;8.35;5.40;;;;;;;;;;5050722;28;20036;-76
2022/08/14 08:29:18;;;;;;;7.15;4.90;;;;;;;;;;5050891;28;20037;-76
2022/08/14 08:31:50;;;;;;;6.20;4.78;;;;;;;;;;5050947;28;20045;-76
2022/08/14 08:34:17;;;;;;;7.60;5.00;;;;;;;;;;5051165;28;20040;-76
2022/08/14 08:36:43;;;;;;;7.05;4.63;;;;;;;;;;5050742;28;20071;-76
2022/08/14 08:39:10;;;;;;;8.35;4.60;;;;;;;;;;5050364;28;20128;-76
2022/08/14 08:41:40;;;;;;;6.18;5.13;;;;;;;;;;5034443;28;20481;-76
2022/08/14 08:44:06;;;;;;;5.93;5.32;;;;;;;;;;5050249;28;20115;-76
2022/08/14 08:46:32;;;;;;;5.30;4.80;;;;;;;;;;5050670;28;20061;-76
2022/08/14 08:48:58;;;;;;;5.00;4.50;;;;;;;;;;5050393;28;20073;-76
2022/08/14 08:51:26;;;;;;;6.20;4.50;;;;;;;;;;5034270;28;20036;-76
2022/08/14 08:54:00;;;;;;;6.40;4.72;;;;;;;;;;5050272;28;20043;-77
2022/08/14 08:56:33;;;;;;;5.75;4.35;;;;;;;;;;5050772;28;20041;-76
2022/08/14 08:59:00;;;;;;;5.05;4.35;;;;;;;;;;5050665;28;20127;-76
2022/08/14 09:01:30;;;;;;;8.68;4.70;;;;;;;;;;5050569;28;20099;-76
2022/08/14 09:04:03;;;;;;;5.40;4.60;;;;;;;;;;5051262;28;20082;-76
2022/08/14 09:06:29;;;;;;;7.22;4.20;;;;;;;;;;5054545;28;20049;-76
2022/08/14 09:08:55;;;;;;;4.55;4.15;;;;;;;;;;5053822;28;20041;-77
2022/08/14 09:11:23;;;;;;;5.45;4.20;;;;;;;;;;5054537;28;20041;-76
2022/08/14 09:13:53;;;;;;;5.00;4.45;;;;;;;;;;5054703;28;20554;-76
2022/08/14 09:16:21;;;;;;;6.43;4.60;;;;;;;;;;5037754;28;20044;-76
2022/08/14 09:18:47;;;;;;;7.30;4.45;;;;;;;;;;5054149;28;20060;-76
2022/08/14 09:21:13;;;;;;;5.47;4.45;;;;;;;;;;5053973;28;20048;-76
2022/08/14 09:23:39;;;;;;;5.22;4.40;;;;;;;;;;5038045;28;20041;-76
2022/08/14 09:26:06;;;;;;;4.65;4.05;;;;;;;;;;5053767;28;20123;-76
2022/08/14 09:28:32;;;;;;;5.70;4.40;;;;;;;;;;5037758;28;20512;-76
2022/08/14 09:30:58;;;;;;;5.32;4.15;;;;;;;;;;5037230;28;20091;-75
2022/08/14 09:33:31;;;;;;;6.32;4.43;;;;;;;;;;5054222;28;20025;-75
2022/08/14 09:36:09;;;;;;;8.15;4.32;;;;;;;;;;5036979;28;20052;-76
2022/08/14 09:38:54;;;;;;;6.57;4.45;;;;;;;;;;5040175;28;20036;-75
2022/08/14 09:41:39;;;;;;;6.40;4.20;;;;;;;;;;5037205;28;20052;-75
2022/08/14 09:44:07;;;;;;;6.22;4.55;;;;;;;;;;5053423;28;20061;-76
2022/08/14 09:46:34;;;;;;;5.38;4.18;;;;;;;;;;5053733;28;20064;-76
2022/08/14 09:49:04;;;;;;;5.82;4.20;;;;;;;;;;5053334;28;20037;-76
2022/08/14 09:51:31;;;;;;;5.70;4.25;;;;;;;;;;5053549;28;20044;-76
2022/08/14 09:54:00;;;;;;;7.07;4.50;;;;;;;;;;5053534;28;20397;-76
2022/08/14 09:56:26;;;;;;;5.82;4.28;;;;;;;;;;5054672;28;20496;-76
2022/08/14 09:58:52;;;;;;;5.95;4.30;;;;;;;;;;5053519;28;20041;-77
2022/08/14 10:01:19;;;;;;;5.32;4.20;;;;;;;;;;5053301;28;20051;-77
2022/08/14 10:03:55;;;;;;;7.32;3.90;;;;;;;;;;5053634;28;20142;-77
2022/08/14 10:06:25;;;;;;;5.65;4.70;;;;;;;;;;5053339;28;20049;-77
2022/08/14 10:09:00;;;;;;;8.27;4.22;;;;;;;;;;5036541;28;20106;-77
2022/08/14 10:11:28;;;;;;;7.03;4.35;;;;;;;;;;5053140;28;20048;-76
2022/08/14 10:14:01;;;;;;;5.20;4.05;;;;;;;;;;5036842;28;20040;-76
2022/08/14 10:16:29;;;;;;;6.50;4.80;;;;;;;;;;5053229;28;20081;-76
2022/08/14 10:19:21;;;;;;;9.40;4.70;;;;;;;;;;5036364;28;20048;-76
2022/08/14 10:22:02;;;;;;;6.53;4.68;;;;;;;;;;5052087;28;20140;-76
2022/08/14 10:24:32;;;;;;;15.95;5.25;;;;;;;;;;5052839;28;20064;-76
2022/08/14 10:26:59;;;;;;;7.72;4.78;;;;;;;;;;5036181;28;20084;-76
2022/08/14 10:29:33;;;;;;;5.43;4.50;;;;;;;;;;5019826;28;20052;-76
2022/08/14 10:31:59;;;;;;;5.10;4.47;;;;;;;;;;5053127;28;20048;-76
2022/08/14 10:34:30;;;;;;;5.78;4.40;;;;;;;;;;5052807;28;20037;-76
2022/08/14 10:37:02;;;;;;;6.63;4.78;;;;;;;;;;5052829;28;20045;-76
2022/08/14 10:39:29;;;;;;;4.97;4.47;;;;;;;;;;5053169;28;20481;-76
2022/08/14 10:42:10;;;;;;;6.15;4.70;;;;;;;;;;5052524;28;20045;-76
2022/08/14 10:44:40;;;;;;;6.25;4.80;;;;;;;;;;5052698;28;20533;-77
2022/08/14 10:47:08;;;;;;;6.05;4.60;;;;;;;;;;5038720;28;20486;-75
2022/08/14 10:49:36;;;;;;;6.72;4.80;;;;;;;;;;5052939;28;20489;-75
2022/08/14 10:52:05;;;;;;;5.85;4.82;;;;;;;;;;5054005;28;20426;-76
2022/08/14 10:54:36;;;;;;;5.10;4.60;;;;;;;;;;5052785;28;20103;-76
2022/08/14 10:57:23;;;;;;;6.68;4.60;;;;;;;;;;5052293;28;20068;-76
2022/08/14 10:59:49;;;;;;;6.88;4.82;;;;;;;;;;5052833;28;20487;-76
2022/08/14 11:02:19;;;;;;;6.65;4.68;;;;;;;;;;5051935;28;20040;-75
2022/08/14 11:04:57;;;;;;;5.88;5.07;;;;;;;;;;5052444;28;20039;-76
2022/08/14 11:07:23;;;;;;;5.35;4.82;;;;;;;;;;5051711;28;20049;-76
2022/08/14 11:09:56;;;;;;;4.85;4.43;;;;;;;;;;5052221;28;20177;-76
2022/08/14 11:12:26;;;;;;;6.15;4.70;;;;;;;;;;5035345;28;20366;-77
2022/08/14 11:14:54;;;;;;;5.15;4.32;;;;;;;;;;5035818;28;20107;-76
2022/08/14 11:17:20;;;;;;;6.95;4.60;;;;;;;;;;5051660;28;20037;-76
2022/08/14 11:19:47;;;;;;;5.20;4.70;;;;;;;;;;5052282;28;20056;-77
2022/08/14 11:22:16;;;;;;;7.57;4.70;;;;;;;;;;5035002;28;20041;-76
2022/08/14 11:24:44;;;;;;;5.32;4.70;;;;;;;;;;5052190;28;20375;-76
2022/08/14 11:27:12;;;;;;;5.13;4.63;;;;;;;;;;5050706;28;20116;-77
2022/08/14 11:29:39;;;;;;;5.30;4.80;;;;;;;;;;5051642;28;20041;-77
2022/08/14 11:32:06;;;;;;;5.32;4.82;;;;;;;;;;5052061;28;20049;-77
2022/08/14 11:34:35;;;;;;;6.57;4.20;;;;;;;;;;5051606;28;20040;-76
2022/08/14 11:37:08;;;;;;;5.00;4.50;;;;;;;;;;5051716;28;20184;-76
2022/08/14 11:39:34;;;;;;;7.35;4.68;;;;;;;;;;5051395;28;20037;-77
2022/08/14 11:42:02;;;;;;;4.85;4.25;;;;;;;;;;5035281;28;20429;-77
2022/08/14 11:44:28;;;;;;;4.80;4.30;;;;;;;;;;5051007;28;20512;-76
2022/08/14 11:46:54;;;;;;;5.35;4.40;;;;;;;;;;5051656;28;20033;-76
2022/08/14 11:49:29;;;;;;;5.82;4.55;;;;;;;;;;5051137;28;20528;-76
2022/08/14 11:51:56;;;;;;;7.03;4.60;;;;;;;;;;5051384;28;20053;-75
2022/08/14 11:54:22;;;;;;;6.50;4.50;;;;;;;;;;5034505;28;20037;-76
2022/08/14 11:56:50;;;;;;;6.95;4.68;;;;;;;;;;5051546;28;20040;-76
2022/08/14 11:59:17;;;;;;;5.88;4.75;;;;;;;;;;5050782;28;20051;-77
2022/08/14 12:01:45;;;;;;;6.88;4.40;;;;;;;;;;5051647;28;20513;-77
2022/08/14 12:04:12;;;;;;;5.68;4.30;;;;;;;;;;5051378;28;20049;-76
2022/08/14 12:06:51;;;;;;;5.78;4.68;;;;;;;;;;5051524;28;20051;-76
2022/08/14 12:09:37;;;;;;;9.00;4.35;;;;;;;;;;5037619;28;20044;-76
2022/08/14 12:12:14;;;;;;;5.40;4.10;;;;;;;;;;5051018;28;20180;-77
2022/08/14 12:15:00;;;;;;;4.75;4.22;;;;;;;;;;5050882;28;20029;-76
2022/08/14 12:17:28;;;;;;;5.47;4.10;;;;;;;;;;5050706;28;20063;-76
2022/08/14 12:19:59;;;;;;;6.88;4.50;;;;;;;;;;5050901;28;20047;-76
2022/08/14 12:22:39;;;;;;;4.72;4.22;;;;;;;;;;5050900;28;20044;-76
2022/08/14 12:25:15;;;;;;;4.93;4.13;;;;;;;;;;5034286;28;20048;-76
2022/08/14 12:27:48;;;;;;;5.18;3.95;;;;;;;;;;5034521;28;20048;-76
2022/08/14 12:30:26;;;;;;;6.30;4.05;;;;;;;;;;5033963;28;20044;-77
2022/08/14 12:32:52;;;;;;;4.93;4.43;;;;;;;;;;5051129;28;20110;-76
2022/08/14 12:35:18;;;;;;;5.38;4.53;;;;;;;;;;5050772;28;20055;-76
2022/08/14 12:37:48;;;;;;;6.07;4.32;;;;;;;;;;5051167;28;20542;-76
2022/08/14 12:40:15;;;;;;;7.45;4.10;;;;;;;;;;5053733;28;20068;-77
2022/08/14 12:42:43;;;;;;;5.95;4.20;;;;;;;;;;5055112;28;20037;-77
2022/08/14 12:45:11;;;;;;;5.63;4.10;;;;;;;;;;5054420;28;20053;-76
2022/08/14 12:47:42;;;;;;;4.57;3.80;;;;;;;;;;5054424;28;20061;-76
2022/08/14 12:50:09;;;;;;;4.55;4.00;;;;;;;;;;5055129;28;20029;-77
2022/08/14 12:52:35;;;;;;;4.47;4.05;;;;;;;;;;5054461;28;20040;-76
2022/08/14 12:55:03;;;;;;;4.47;4.07;;;;;;;;;;5054595;28;20107;-77
2022/08/14 12:57:40;;;;;;;4.90;3.75;;;;;;;;;;5054009;28;20048;-76
2022/08/14 13:00:07;;;;;;;6.40;4.40;;;;;;;;;;5037733;28;20045;-76
2022/08/14 13:02:37;;;;;;;4.90;4.40;;;;;;;;;;5047225;28;20493;-77
2022/08/14 13:05:03;;;;;;;5.05;4.28;;;;;;;;;;5054449;28;20083;-76
2022/08/14 13:07:29;;;;;;;5.38;4.25;;;;;;;;;;5054514;28;20059;-76
2022/08/14 13:09:59;;;;;;;4.72;4.30;;;;;;;;;;5054762;28;20029;-77
2022/08/14 13:12:27;;;;;;;6.00;4.30;;;;;;;;;;5037580;28;20037;-77
2022/08/14 13:14:56;;;;;;;6.07;4.38;;;;;;;;;;5054253;28;20049;-77
2022/08/14 13:17:23;;;;;;;7.90;4.13;;;;;;;;;;5037615;28;20037;-77
2022/08/14 13:19:50;;;;;;;6.22;4.30;;;;;;;;;;5054212;28;20045;-76
2022/08/14 13:22:18;;;;;;;4.47;4.07;;;;;;;;;;5054483;28;20033;-76
2022/08/14 13:24:44;;;;;;;8.93;4.50;;;;;;;;;;5037153;28;20048;-77
2022/08/14 13:27:11;;;;;;;4.28;3.88;;;;;;;;;;5053996;28;20041;-77
2022/08/14 13:29:39;;;;;;;6.38;4.28;;;;;;;;;;5020520;28;20052;-76
2022/08/14 13:32:08;;;;;;;5.22;4.25;;;;;;;;;;5054224;28;20045;-77
2022/08/14 13:34:34;;;;;;;4.50;3.95;;;;;;;;;;5053536;28;20040;-76
2022/08/14 13:37:00;;;;;;;6.70;4.18;;;;;;;;;;5037602;28;20103;-76
2022/08/14 13:39:28;;;;;;;4.40;4.00;;;;;;;;;;5037116;28;20041;-77
2022/08/14 13:41:54;;;;;;;4.80;4.30;;;;;;;;;;5054095;28;20057;-76
2022/08/14 13:44:21;;;;;;;4.78;4.15;;;;;;;;;;5055060;28;20119;-76
2022/08/14 13:46:50;;;;;;;5.00;4.10;;;;;;;;;;5053443;28;20043;-76
2022/08/14 13:49:18;;;;;;;7.07;4.05;;;;;;;;;;5053569;28;20045;-76
2022/08/14 13:51:47;;;;;;;5.10;3.97;;;;;;;;;;5053303;28;20041;-76
2022/08/14 13:54:19;;;;;;;4.78;4.20;;;;;;;;;;5053706;28;20045;-76
2022/08/14 13:56:46;;;;;;;5.43;4.13;;;;;;;;;;5053480;28;20409;-76
2022/08/14 13:59:12;;;;;;;4.97;4.30;;;;;;;;;;5053851;28;20036;-76
2022/08/14 14:01:40;;;;;;;4.97;4.05;;;;;;;;;;5053232;28;20497;-77
2022/08/14 14:04:09;;;;;;;7.90;4.28;;;;;;;;;;5039947;28;20041;-76
2022/08/14 14:06:35;;;;;;;5.05;4.55;;;;;;;;;;5053277;28;20508;-76
2022/08/14 14:09:01;;;;;;;6.53;4.55;;;;;;;;;;5054620;28;20044;-76
2022/08/14 14:11:28;;;;;;;5.15;3.90;;;;;;;;;;5036111;28;20051;-76
2022/08/14 14:13:55;;;;;;;5.25;4.07;;;;;;;;;;5053339;28;20045;-76
2022/08/14 14:16:21;;;;;;;7.00;4.53;;;;;;;;;;5053085;28;20037;-75
2022/08/14 14:18:49;;;;;;;7.32;4.60;;;;;;;;;;5052870;28;20221;-76
2022/08/14 14:21:19;;;;;;;6.30;4.50;;;;;;;;;;5053400;28;20513;-76
2022/08/14 14:23:45;;;;;;;5.40;4.13;;;;;;;;;;5036358;28;20044;-76
2022/08/14 14:26:16;;;;;;;4.55;4.07;;;;;;;;;;5036484;28;20052;-77
2022/08/14 14:28:42;;;;;;;5.65;4.47;;;;;;;;;;5052653;28;20448;-77
2022/08/14 14:31:10;;;;;;;7.35;4.60;;;;;;;;;;5052931;28;20397;-76
2022/08/14 14:33:39;;;;;;;5.75;4.15;;;;;;;;;;5052592;28;20075;-76
2022/08/14 14:36:06;;;;;;;5.78;3.92;;;;;;;;;;5052590;28;20069;-76
2022/08/14 14:38:33;;;;;;;6.72;4.22;;;;;;;;;;5052590;28;20114;-76
2022/08/14 14:40:59;;;;;;;6.13;4.35;;;;;;;;;;5052924;28;20853;-76
2022/08/14 14:43:27;;;;;;;4.95;4.45;;;;;;;;;;5052787;28;20128;-77
2022/08/14 14:45:55;;;;;;;4.50;4.10;;;;;;;;;;5051857;28;20111;-76
2022/08/14 14:48:22;;;;;;;7.53;4.38;;;;;;;;;;5052752;28;20049;-76
2022/08/14 14:50:51;;;;;;;5.70;4.20;;;;;;;;;;5035563;28;20063;-77
2022/08/14 14:53:18;;;;;;;5.00;4.22;;;;;;;;;;5052504;28;20071;-76
2022/08/14 14:55:45;;;;;;;4.57;4.18;;;;;;;;;;5052095;28;20060;-75
2022/08/14 14:58:13;;;;;;;4.72;4.30;;;;;;;;;;5052647;28;20503;-76
2022/08/14 15:00:40;;;;;;;5.63;4.47;;;;;;;;;;5035389;28;20052;-75